Terminal Aerodrome Forecast
Issued by NWS

Home | Current Version | Previous Version | Text Only | Print | Product List | Glossary On
Versions: 1 2 3 4 5 6 7 8 9 10 11 12 13 14 15 16 17 18 19 20 21 22 23 24 25 26 27 28 29 30 31 32 33 34 35
000
FTUS41 KBOX 300527
TAFBAF
TAF
KBAF 300527Z 3006/0106 05009KT P6SM OVC012
     FM301300 04004KT 6SM -DZ BR OVC015
     FM301500 04005KT P6SM -DZ OVC025
     FM301700 06005KT P6SM -DZ BKN050
     FM302200 07005KT P6SM SCT050
     FM010500 01005KT P6SM BKN050=

USA.gov is the U.S. government's official web portal to all federal, state and local government web resources and services.